KPBG/PBG METAR and TAF weather

Enter ICAO airport designator
Station Type Date Time Source
KPBG METAR 2019/04/18 09:53 UTC NOAA

KPBG 180953Z AUTO 17011KT 10SM OVC100 04/M02 A3005 RMK AO2 SLP178 T00391022


Station Type Date Time Source
KPBG Decoded METAR 2019/04/18 09:53 UTC NOAA

PLATTSBURGH INTERNATIONAL AIRPORT, NY, United States (KPBG) 44-39N 073-28W
Apr 18, 2019 - 05:53 AM EDT / 2019.04.18 0953 UTC
Wind: from the S (170 degrees) at 13 MPH (11 KT):0
Visibility: 10 mile(s):0
Sky conditions: overcast
Temperature: 39.0 F (3.9 C)
Dew Point: 28.0 F (-2.2 C)
Relative Humidity: 64%
Pressure (altimeter): 30.05 in. Hg (1017 hPa)
ob: KPBG 180953Z AUTO 17011KT 10SM OVC100 04/M02 A3005 RMK AO2 SLP178 T00391022
cycle: 10

Station Type Date Time Source
KPBG TAF 2019/04/18 06:36 UTC NOAA

TAF KPBG 180532Z 1806/1906 VRB04KT P6SM FEW250
FM181100 16011G19KT P6SM VCSH BKN070
FM181400 16017G28KT P6SM OVC060
FM190200 17015G26KT P6SM VCSH BKN030

Example: see airport list